sensor_id;sensor_type;location;lat;lon;timestamp;temperature;humidity
25568;DHT22;13455;51.480;7.594;2023-10-09T07:45:18;16.90;99.90
25568;DHT22;13455;51.480;7.594;2023-10-09T07:47:45;16.90;99.90
25568;DHT22;13455;51.480;7.594;2023-10-09T07:50:28;16.80;99.90
25568;DHT22;13455;51.480;7.594;2023-10-09T07:53:07;16.90;99.90
25568;DHT22;13455;51.480;7.594;2023-10-09T07:55:54;16.90;99.90
25568;DHT22;13455;51.480;7.594;2023-10-09T07:58:22;16.90;99.90
25568;DHT22;13455;51.480;7.594;2023-10-09T08:01:00;16.90;99.90
25568;DHT22;13455;51.480;7.594;2023-10-09T08:03:32;17.00;99.90
25568;DHT22;13455;51.480;7.594;2023-10-09T08:06:00;17.00;99.90
25568;DHT22;13455;51.480;7.594;2023-10-09T08:08:44;17.00;99.90
25568;DHT22;13455;51.480;7.594;2023-10-09T08:11:30;17.00;99.90
25568;DHT22;13455;51.480;7.594;2023-10-09T08:14:11;17.00;99.90
25568;DHT22;13455;51.480;7.594;2023-10-09T08:16:56;17.20;99.90
25568;DHT22;13455;51.480;7.594;2023-10-09T08:19:40;17.20;99.90
25568;DHT22;13455;51.480;7.594;2023-10-09T08:22:36;17.20;99.90
25568;DHT22;13455;51.480;7.594;2023-10-09T08:25:09;17.20;99.90
25568;DHT22;13455;51.480;7.594;2023-10-09T08:27:52;17.20;99.90
25568;DHT22;13455;51.480;7.594;2023-10-09T08:30:21;17.30;99.90
25568;DHT22;13455;51.480;7.594;2023-10-09T08:32:48;17.30;99.90
25568;DHT22;13455;51.480;7.594;2023-10-09T08:35:30;17.40;99.90
25568;DHT22;13455;51.480;7.594;2023-10-09T08:37:59;17.40;99.90
25568;DHT22;13455;51.480;7.594;2023-10-09T08:40:32;17.40;99.90
25568;DHT22;13455;51.480;7.594;2023-10-09T08:43:13;17.50;99.90
25568;DHT22;13455;51.480;7.594;2023-10-09T08:45:43;17.50;99.90
25568;DHT22;13455;51.480;7.594;2023-10-09T08:48:11;17.50;99.90
25568;DHT22;13455;51.480;7.594;2023-10-09T08:50:48;17.50;99.90
25568;DHT22;13455;51.480;7.594;2023-10-09T08:53:20;17.50;99.90
25568;DHT22;13455;51.480;7.594;2023-10-09T08:55:46;17.60;99.90
25568;DHT22;13455;51.480;7.594;2023-10-09T08:58:14;17.60;99.90
25568;DHT22;13455;51.480;7.594;2023-10-09T09:00:48;17.60;99.90
25568;DHT22;13455;51.480;7.594;2023-10-09T09:03:18;17.60;99.90
25568;DHT22;13455;51.480;7.594;2023-10-09T09:05:48;17.60;99.90
25568;DHT22;13455;51.480;7.594;2023-10-09T09:08:24;17.60;99.90
25568;DHT22;13455;51.480;7.594;2023-10-09T09:10:59;17.60;99.90
25568;DHT22;13455;51.480;7.594;2023-10-09T09:13:46;17.70;99.90
25568;DHT22;13455;51.480;7.594;2023-10-09T09:18:59;17.80;99.90
25568;DHT22;13455;51.480;7.594;2023-10-09T09:21:39;17.80;99.90
25568;DHT22;13455;51.480;7.594;2023-10-09T09:24:10;17.90;99.90
25568;DHT22;13455;51.480;7.594;2023-10-09T09:26:49;17.90;99.90
25568;DHT22;13455;51.480;7.594;2023-10-09T09:29:46;18.00;99.90
25568;DHT22;13455;51.480;7.594;2023-10-09T09:32:28;18.00;99.90
25568;DHT22;13455;51.480;7.594;2023-10-09T09:35:01;18.20;99.90
25568;DHT22;13455;51.480;7.594;2023-10-09T09:37:30;18.20;99.90
25568;DHT22;13455;51.480;7.594;2023-10-09T09:42:42;18.50;99.90
25568;DHT22;13455;51.480;7.594;2023-10-09T09:45:11;18.50;99.90
25568;DHT22;13455;51.480;7.594;2023-10-09T09:50:06;18.80;99.90
25568;DHT22;13455;51.480;7.594;2023-10-09T10:03:16;19.40;99.90
25568;DHT22;13455;51.480;7.594;2023-10-09T10:05:45;19.30;99.90
25568;DHT22;13455;51.480;7.594;2023-10-09T10:08:21;19.40;99.90
25568;DHT22;13455;51.480;7.594;2023-10-09T10:10:56;19.50;99.90
25568;DHT22;13455;51.480;7.594;2023-10-09T10:16:11;19.70;99.90
25568;DHT22;13455;51.480;7.594;2023-10-09T10:19:00;19.80;99.90
25568;DHT22;13455;51.480;7.594;2023-10-09T10:21:33;19.90;99.90
25568;DHT22;13455;51.480;7.594;2023-10-09T10:32:54;20.30;99.90
25568;DHT22;13455;51.480;7.594;2023-10-09T10:35:22;20.40;99.90
25568;DHT22;13455;51.480;7.594;2023-10-09T10:41:13;20.50;99.90
25568;DHT22;13455;51.480;7.594;2023-10-09T10:43:42;20.40;99.90
25568;DHT22;13455;51.480;7.594;2023-10-09T10:46:18;20.40;99.90
25568;DHT22;13455;51.480;7.594;2023-10-09T10:48:56;20.40;99.90
25568;DHT22;13455;51.480;7.594;2023-10-09T10:51:47;20.40;99.90
25568;DHT22;13455;51.480;7.594;2023-10-09T10:54:26;20.40;99.90
25568;DHT22;13455;51.480;7.594;2023-10-09T10:57:17;20.50;99.90
25568;DHT22;13455;51.480;7.594;2023-10-09T10:59:54;20.60;99.90
25568;DHT22;13455;51.480;7.594;2023-10-09T11:02:39;20.50;99.90
25568;DHT22;13455;51.480;7.594;2023-10-09T11:05:07;20.50;99.90
25568;DHT22;13455;51.480;7.594;2023-10-09T11:07:56;20.60;99.90
25568;DHT22;13455;51.480;7.594;2023-10-09T11:10:23;20.60;99.90
25568;DHT22;13455;51.480;7.594;2023-10-09T11:12:54;20.70;99.90
25568;DHT22;13455;51.480;7.594;2023-10-09T11:15:33;20.70;99.90
25568;DHT22;13455;51.480;7.594;2023-10-09T11:18:42;20.80;99.90
25568;DHT22;13455;51.480;7.594;2023-10-09T11:21:14;20.90;99.90
25568;DHT22;13455;51.480;7.594;2023-10-09T11:31:39;21.30;99.90
25568;DHT22;13455;51.480;7.594;2023-10-09T11:34:18;21.30;99.90
25568;DHT22;13455;51.480;7.594;2023-10-09T11:36:56;21.30;99.90
25568;DHT22;13455;51.480;7.594;2023-10-09T11:44:41;21.50;99.90
25568;DHT22;13455;51.480;7.594;2023-10-09T11:47:10;21.50;99.90
25568;DHT22;13455;51.480;7.594;2023-10-09T11:52:22;21.50;99.90
25568;DHT22;13455;51.480;7.594;2023-10-09T11:54:57;21.40;99.90
25568;DHT22;13455;51.480;7.594;2023-10-09T11:57:25;21.40;99.90
25568;DHT22;13455;51.480;7.594;2023-10-09T11:59:57;21.70;99.90
25568;DHT22;13455;51.480;7.594;2023-10-09T12:02:23;21.50;99.90
25568;DHT22;13455;51.480;7.594;2023-10-09T12:04:49;21.70;99.90
25568;DHT22;13455;51.480;7.594;2023-10-09T12:07:15;21.50;99.90
25568;DHT22;13455;51.480;7.594;2023-10-09T12:09:41;21.70;99.90
25568;DHT22;13455;51.480;7.594;2023-10-09T12:12:07;21.60;99.90
25568;DHT22;13455;51.480;7.594;2023-10-09T12:14:36;21.70;99.90
25568;DHT22;13455;51.480;7.594;2023-10-09T12:17:05;21.70;99.90
25568;DHT22;13455;51.480;7.594;2023-10-09T12:19:35;21.70;99.90
25568;DHT22;13455;51.480;7.594;2023-10-09T12:22:02;21.70;99.90
25568;DHT22;13455;51.480;7.594;2023-10-09T12:24:34;22.00;99.90
25568;DHT22;13455;51.480;7.594;2023-10-09T12:27:00;21.60;99.90
25568;DHT22;13455;51.480;7.594;2023-10-09T12:29:26;21.90;99.90
25568;DHT22;13455;51.480;7.594;2023-10-09T12:31:56;21.80;99.90
25568;DHT22;13455;51.480;7.594;2023-10-09T12:34:27;21.70;99.90
25568;DHT22;13455;51.480;7.594;2023-10-09T12:36:54;21.80;99.90
25568;DHT22;13455;51.480;7.594;2023-10-09T12:39:21;21.70;99.90
25568;DHT22;13455;51.480;7.594;2023-10-09T12:41:48;22.00;99.90
25568;DHT22;13455;51.480;7.594;2023-10-09T12:44:13;21.60;99.90
25568;DHT22;13455;51.480;7.594;2023-10-09T12:46:52;21.60;99.90
25568;DHT22;13455;51.480;7.594;2023-10-09T12:49:21;21.60;99.90
25568;DHT22;13455;51.480;7.594;2023-10-09T12:51:51;21.50;99.90
25568;DHT22;13455;51.480;7.594;2023-10-09T12:54:17;21.40;99.90
25568;DHT22;13455;51.480;7.594;2023-10-09T12:56:44;21.40;99.90
25568;DHT22;13455;51.480;7.594;2023-10-09T12:59:14;21.40;99.90
25568;DHT22;13455;51.480;7.594;2023-10-09T13:01:41;21.60;99.90
25568;DHT22;13455;51.480;7.594;2023-10-09T13:04:10;21.60;99.90
25568;DHT22;13455;51.480;7.594;2023-10-09T13:06:42;21.50;99.90
25568;DHT22;13455;51.480;7.594;2023-10-09T13:09:15;21.70;99.90
25568;DHT22;13455;51.480;7.594;2023-10-09T13:11:42;21.50;99.90
25568;DHT22;13455;51.480;7.594;2023-10-09T13:14:08;21.50;99.90
25568;DHT22;13455;51.480;7.594;2023-10-09T13:16:48;21.70;99.90
25568;DHT22;13455;51.480;7.594;2023-10-09T13:19:16;21.70;99.90
25568;DHT22;13455;51.480;7.594;2023-10-09T13:21:43;21.70;99.90
25568;DHT22;13455;51.480;7.594;2023-10-09T13:24:09;21.30;99.90
25568;DHT22;13455;51.480;7.594;2023-10-09T13:26:49;21.30;99.90
25568;DHT22;13455;51.480;7.594;2023-10-09T13:29:17;21.50;99.90
25568;DHT22;13455;51.480;7.594;2023-10-09T13:31:48;21.70;99.90
25568;DHT22;13455;51.480;7.594;2023-10-09T13:34:15;21.60;99.90
25568;DHT22;13455;51.480;7.594;2023-10-09T13:36:42;21.50;99.90
25568;DHT22;13455;51.480;7.594;2023-10-09T13:39:19;21.50;99.90
25568;DHT22;13455;51.480;7.594;2023-10-09T13:41:52;21.60;99.90
25568;DHT22;13455;51.480;7.594;2023-10-09T13:44:24;21.50;99.90
25568;DHT22;13455;51.480;7.594;2023-10-09T13:46:53;21.20;99.90
25568;DHT22;13455;51.480;7.594;2023-10-09T13:49:18;21.30;99.90
25568;DHT22;13455;51.480;7.594;2023-10-09T13:51:48;22.50;99.90
25568;DHT22;13455;51.480;7.594;2023-10-09T13:54:16;21.50;99.90
25568;DHT22;13455;51.480;7.594;2023-10-09T13:57:05;21.30;99.90
25568;DHT22;13455;51.480;7.594;2023-10-09T13:59:32;21.10;99.90
25568;DHT22;13455;51.480;7.594;2023-10-09T14:02:00;21.10;99.90
25568;DHT22;13455;51.480;7.594;2023-10-09T14:04:28;21.30;99.90
25568;DHT22;13455;51.480;7.594;2023-10-09T14:06:54;21.30;99.90
25568;DHT22;13455;51.480;7.594;2023-10-09T14:09:25;21.40;99.90
25568;DHT22;13455;51.480;7.594;2023-10-09T14:12:01;21.50;99.90
25568;DHT22;13455;51.480;7.594;2023-10-09T14:14:40;21.40;99.90
25568;DHT22;13455;51.480;7.594;2023-10-09T14:17:15;21.40;99.90
25568;DHT22;13455;51.480;7.594;2023-10-09T14:19:47;21.40;99.90
25568;DHT22;13455;51.480;7.594;2023-10-09T14:22:16;21.30;99.90
25568;DHT22;13455;51.480;7.594;2023-10-09T14:24:44;21.50;99.90
25568;DHT22;13455;51.480;7.594;2023-10-09T14:27:16;21.30;99.90
25568;DHT22;13455;51.480;7.594;2023-10-09T14:29:48;21.20;99.90
25568;DHT22;13455;51.480;7.594;2023-10-09T14:32:14;21.10;99.90
25568;DHT22;13455;51.480;7.594;2023-10-09T14:34:41;21.40;99.90
25568;DHT22;13455;51.480;7.594;2023-10-09T14:37:15;21.10;99.90
25568;DHT22;13455;51.480;7.594;2023-10-09T14:39:42;21.10;99.90
25568;DHT22;13455;51.480;7.594;2023-10-09T14:42:07;21.40;99.90
25568;DHT22;13455;51.480;7.594;2023-10-09T14:44:36;21.40;99.90
25568;DHT22;13455;51.480;7.594;2023-10-09T14:47:04;21.00;99.90
25568;DHT22;13455;51.480;7.594;2023-10-09T14:49:31;21.30;99.90
25568;DHT22;13455;51.480;7.594;2023-10-09T14:52:09;21.30;99.90
25568;DHT22;13455;51.480;7.594;2023-10-09T14:54:36;21.20;99.90
25568;DHT22;13455;51.480;7.594;2023-10-09T14:57:02;21.20;99.90
25568;DHT22;13455;51.480;7.594;2023-10-09T14:59:32;21.10;99.90
25568;DHT22;13455;51.480;7.594;2023-10-09T15:01:58;20.90;99.90
25568;DHT22;13455;51.480;7.594;2023-10-09T15:04:25;20.90;99.90
25568;DHT22;13455;51.480;7.594;2023-10-09T15:06:53;21.20;99.90
25568;DHT22;13455;51.480;7.594;2023-10-09T15:09:19;21.10;99.90
25568;DHT22;13455;51.480;7.594;2023-10-09T15:11:49;21.00;99.90
25568;DHT22;13455;51.480;7.594;2023-10-09T15:14:15;20.90;99.90
25568;DHT22;13455;51.480;7.594;2023-10-09T15:19:11;20.80;99.90
25568;DHT22;13455;51.480;7.594;2023-10-09T15:21:37;20.70;99.90
25568;DHT22;13455;51.480;7.594;2023-10-09T15:56:13;20.50;99.90
25568;DHT22;13455;51.480;7.594;2023-10-09T15:58:40;20.40;99.90
25568;DHT22;13455;51.480;7.594;2023-10-09T16:20:59;20.20;99.90
25568;DHT22;13455;51.480;7.594;2023-10-09T16:23:29;20.10;99.90
25568;DHT22;13455;51.480;7.594;2023-10-09T16:28:22;20.10;99.90
25568;DHT22;13455;51.480;7.594;2023-10-09T16:30:48;20.00;99.90
25568;DHT22;13455;51.480;7.594;2023-10-09T16:33:14;20.00;99.90
25568;DHT22;13455;51.480;7.594;2023-10-09T16:35:41;19.90;99.90
25568;DHT22;13455;51.480;7.594;2023-10-09T16:40:39;19.80;99.90
25568;DHT22;13455;51.480;7.594;2023-10-09T16:43:05;19.80;99.90
25568;DHT22;13455;51.480;7.594;2023-10-09T16:45:31;19.80;99.90
25568;DHT22;13455;51.480;7.594;2023-10-09T16:48:01;19.70;99.90
25568;DHT22;13455;51.480;7.594;2023-10-09T16:50:29;19.70;99.90
25568;DHT22;13455;51.480;7.594;2023-10-09T17:05:32;19.50;99.90
25568;DHT22;13455;51.480;7.594;2023-10-09T17:08:01;19.50;99.90
25568;DHT22;13455;51.480;7.594;2023-10-09T17:10:34;19.30;99.90
25568;DHT22;13455;51.480;7.594;2023-10-09T17:13:02;19.30;99.90
25568;DHT22;13455;51.480;7.594;2023-10-09T17:15:34;19.20;99.90
25568;DHT22;13455;51.480;7.594;2023-10-09T17:17:59;19.20;99.90
25568;DHT22;13455;51.480;7.594;2023-10-09T17:20:28;19.10;99.90
25568;DHT22;13455;51.480;7.594;2023-10-09T17:22:54;19.10;99.90
25568;DHT22;13455;51.480;7.594;2023-10-09T17:25:25;19.00;99.90
25568;DHT22;13455;51.480;7.594;2023-10-09T17:27:51;19.00;99.90
25568;DHT22;13455;51.480;7.594;2023-10-09T17:30:17;18.90;99.90
25568;DHT22;13455;51.480;7.594;2023-10-09T17:32:46;18.90;99.90
25568;DHT22;13455;51.480;7.594;2023-10-09T17:35:13;18.90;99.90
25568;DHT22;13455;51.480;7.594;2023-10-09T17:37:39;18.90;99.90
25568;DHT22;13455;51.480;7.594;2023-10-09T17:40:07;18.80;99.90
25568;DHT22;13455;51.480;7.594;2023-10-09T17:42:36;18.80;99.90
25568;DHT22;13455;51.480;7.594;2023-10-09T17:45:07;18.70;99.90
25568;DHT22;13455;51.480;7.594;2023-10-09T17:47:33;18.70;99.90
25568;DHT22;13455;51.480;7.594;2023-10-09T17:50:05;18.70;99.90
25568;DHT22;13455;51.480;7.594;2023-10-09T17:52:31;18.70;99.90
25568;DHT22;13455;51.480;7.594;2023-10-09T17:55:01;18.70;99.90
25568;DHT22;13455;51.480;7.594;2023-10-09T17:57:27;18.60;99.90
25568;DHT22;13455;51.480;7.594;2023-10-09T17:59:55;18.60;99.90
25568;DHT22;13455;51.480;7.594;2023-10-09T18:04:47;18.60;99.90
25568;DHT22;13455;51.480;7.594;2023-10-09T18:07:14;18.60;99.90
25568;DHT22;13455;51.480;7.594;2023-10-09T18:09:45;18.60;99.90
25568;DHT22;13455;51.480;7.594;2023-10-09T18:12:20;18.50;99.90
25568;DHT22;13455;51.480;7.594;2023-10-09T18:14:51;18.50;99.90
25568;DHT22;13455;51.480;7.594;2023-10-09T18:17:20;18.50;99.90
25568;DHT22;13455;51.480;7.594;2023-10-09T18:19:47;18.50;99.90
25568;DHT22;13455;51.480;7.594;2023-10-09T18:22:15;18.40;99.90
25568;DHT22;13455;51.480;7.594;2023-10-09T18:24:40;18.50;99.90
25568;DHT22;13455;51.480;7.594;2023-10-09T18:27:08;18.10;99.90
25568;DHT22;13455;51.480;7.594;2023-10-09T18:29:34;18.40;99.90
25568;DHT22;13455;51.480;7.594;2023-10-09T18:32:00;18.40;99.90
25568;DHT22;13455;51.480;7.594;2023-10-09T18:34:26;18.40;99.90
25568;DHT22;13455;51.480;7.594;2023-10-09T18:36:55;18.40;99.90
25568;DHT22;13455;51.480;7.594;2023-10-09T18:39:21;18.40;99.90
25568;DHT22;13455;51.480;7.594;2023-10-09T18:44:14;18.30;99.90
25568;DHT22;13455;51.480;7.594;2023-10-09T18:46:40;18.30;99.90
25568;DHT22;13455;51.480;7.594;2023-10-09T18:49:05;18.30;99.90
25568;DHT22;13455;51.480;7.594;2023-10-09T18:51:36;18.30;99.90
25568;DHT22;13455;51.480;7.594;2023-10-09T18:54:05;18.30;99.90
25568;DHT22;13455;51.480;7.594;2023-10-09T18:58:58;18.30;99.90
25568;DHT22;13455;51.480;7.594;2023-10-09T19:01:26;18.20;99.90
25568;DHT22;13455;51.480;7.594;2023-10-09T19:03:52;18.30;99.90
25568;DHT22;13455;51.480;7.594;2023-10-09T19:06:18;18.20;99.90
25568;DHT22;13455;51.480;7.594;2023-10-09T19:08:44;18.20;99.90
25568;DHT22;13455;51.480;7.594;2023-10-09T19:11:14;18.00;99.90
25568;DHT22;13455;51.480;7.594;2023-10-09T19:13:41;18.20;99.90
25568;DHT22;13455;51.480;7.594;2023-10-09T19:16:07;18.20;99.90
25568;DHT22;13455;51.480;7.594;2023-10-09T19:18:34;18.10;99.90
25568;DHT22;13455;51.480;7.594;2023-10-09T19:21:07;18.20;99.90
25568;DHT22;13455;51.480;7.594;2023-10-09T19:23:37;18.10;99.90
25568;DHT22;13455;51.480;7.594;2023-10-09T19:26:07;18.10;99.90
